createdAt,value
2022-10-12T00:00:39.987Z,4.30
2022-10-12T00:03:08.024Z,3.58
2022-10-12T00:05:35.911Z,3.65
2022-10-12T00:08:05.773Z,3.88
2022-10-12T00:10:33.701Z,3.92
2022-10-12T00:13:01.658Z,4.50
2022-10-12T00:15:29.585Z,4.38
2022-10-12T00:17:57.471Z,4.97
2022-10-12T00:20:25.614Z,4.80
2022-10-12T00:22:53.670Z,4.57
2022-10-12T00:25:23.204Z,4.13
2022-10-12T00:27:51.155Z,4.82
2022-10-12T00:30:19.330Z,3.85
2022-10-12T00:32:47.336Z,4.22
2022-10-12T00:35:15.370Z,3.80
2022-10-12T00:37:43.285Z,4.45
2022-10-12T00:40:12.686Z,4.07
2022-10-12T00:42:41.851Z,3.83
2022-10-12T00:45:11.148Z,3.40
2022-10-12T00:47:42.431Z,3.88
2022-10-12T00:50:16.744Z,3.60
2022-10-12T00:52:50.735Z,3.28
2022-10-12T00:55:22.543Z,3.40
2022-10-12T00:57:55.527Z,2.90
2022-10-12T01:00:24.760Z,3.35
2022-10-12T01:02:55.042Z,3.70
2022-10-12T01:05:24.202Z,3.50
2022-10-12T01:07:52.538Z,3.45
2022-10-12T01:10:20.600Z,3.72
2022-10-12T01:12:50.535Z,3.45
2022-10-12T01:15:19.956Z,3.58
2022-10-12T01:17:58.724Z,3.67
2022-10-12T01:20:37.968Z,3.15
2022-10-12T01:23:38.304Z,3.65
2022-10-12T01:26:42.234Z,4.10
2022-10-12T01:29:27.961Z,3.97
2022-10-12T01:32:04.684Z,3.03
2022-10-12T01:34:41.895Z,4.18
2022-10-12T01:37:16.878Z,3.10
2022-10-12T01:39:50.204Z,3.42
2022-10-12T01:42:24.568Z,3.05
2022-10-12T01:44:52.651Z,3.25
2022-10-12T01:47:22.272Z,3.30
2022-10-12T01:49:50.144Z,3.28
2022-10-12T01:52:28.656Z,2.92
2022-10-12T01:55:20.689Z,2.67
2022-10-12T01:58:13.065Z,3.00
2022-10-12T02:00:47.445Z,2.58
2022-10-12T02:03:21.735Z,2.22
2022-10-12T02:05:53.468Z,2.67
2022-10-12T02:08:26.332Z,2.63
2022-10-12T02:10:59.289Z,2.53
2022-10-12T02:13:31.832Z,2.10
2022-10-12T02:16:01.683Z,2.28
2022-10-12T02:18:31.723Z,2.83
2022-10-12T02:21:01.169Z,2.70
2022-10-12T02:23:29.713Z,2.20
2022-10-12T02:26:00.149Z,2.35
2022-10-12T02:28:31.159Z,2.30
2022-10-12T02:31:03.940Z,2.50
2022-10-12T02:33:39.102Z,2.70
2022-10-12T02:36:12.684Z,3.03
2022-10-12T02:38:48.054Z,2.63
2022-10-12T02:41:20.224Z,3.20
2022-10-12T02:43:53.439Z,2.30
2022-10-12T02:46:24.902Z,2.58
2022-10-12T02:48:55.546Z,2.53
2022-10-12T02:51:24.617Z,2.85
2022-10-12T02:53:52.852Z,2.75
2022-10-12T02:56:20.788Z,3.05
2022-10-12T02:58:49.167Z,2.53
2022-10-12T03:01:17.907Z,2.95
2022-10-12T03:03:46.593Z,2.65
2022-10-12T03:06:15.893Z,3.00
2022-10-12T03:08:43.799Z,2.85
2022-10-12T03:11:14.164Z,2.35
2022-10-12T03:13:42.028Z,2.63
2022-10-12T03:16:11.832Z,2.55
2022-10-12T03:18:39.809Z,2.60
2022-10-12T03:21:07.882Z,2.60
2022-10-12T03:23:37.310Z,2.40
2022-10-12T03:26:05.832Z,2.80
2022-10-12T03:28:34.067Z,2.88
2022-10-12T03:31:02.422Z,3.10
2022-10-12T03:33:30.605Z,2.67
2022-10-12T03:35:59.762Z,2.70
2022-10-12T03:38:27.778Z,2.63
2022-10-12T03:40:57.283Z,2.53
2022-10-12T03:43:25.206Z,2.60
2022-10-12T03:45:54.224Z,2.70
2022-10-12T03:48:22.184Z,2.40
2022-10-12T03:50:51.391Z,2.08
2022-10-12T03:53:20.958Z,2.30
2022-10-12T03:55:48.871Z,2.55
2022-10-12T03:58:18.727Z,1.90
2022-10-12T04:00:46.853Z,2.47
2022-10-12T04:03:15.016Z,2.40
2022-10-12T04:05:42.920Z,2.42
2022-10-12T04:08:11.075Z,2.63
2022-10-12T04:10:39.101Z,2.30
2022-10-12T04:13:07.071Z,2.97
2022-10-12T04:15:36.362Z,3.40
2022-10-12T04:18:04.377Z,3.58
2022-10-12T04:20:32.209Z,2.85
2022-10-12T04:23:00.181Z,2.83
2022-10-12T04:25:30.211Z,3.10
2022-10-12T04:27:58.428Z,2.35
2022-10-12T04:30:26.490Z,3.00
2022-10-12T04:32:56.427Z,2.13
2022-10-12T04:35:24.305Z,2.28
2022-10-12T04:37:52.159Z,2.72
2022-10-12T04:40:20.026Z,2.42
2022-10-12T04:42:47.999Z,3.05
2022-10-12T04:45:16.133Z,2.28
2022-10-12T04:47:44.061Z,2.67
2022-10-12T04:50:13.369Z,2.55
2022-10-12T04:52:41.551Z,2.40
2022-10-12T04:55:10.341Z,3.05
2022-10-12T04:57:38.705Z,2.67
2022-10-12T05:00:08.474Z,2.95
2022-10-12T05:02:36.393Z,2.45
2022-10-12T05:05:04.637Z,2.17
2022-10-12T05:07:34.401Z,2.58
2022-10-12T05:10:02.273Z,2.83
2022-10-12T05:12:30.154Z,2.67
2022-10-12T05:14:58.495Z,2.95
2022-10-12T05:17:26.732Z,2.75
2022-10-12T05:19:54.591Z,2.50
2022-10-12T05:22:22.449Z,2.70
2022-10-12T05:24:53.894Z,2.60
2022-10-12T05:27:22.173Z,2.70
2022-10-12T05:29:50.058Z,3.17
2022-10-12T05:32:18.149Z,2.75
2022-10-12T05:34:46.220Z,3.20
2022-10-12T05:37:14.151Z,2.60
2022-10-12T05:39:42.113Z,2.92
2022-10-12T05:42:11.388Z,3.45
2022-10-12T05:44:39.358Z,3.58
2022-10-12T05:47:07.328Z,3.20
2022-10-12T05:49:35.612Z,2.78
2022-10-12T05:52:03.712Z,3.25
2022-10-12T05:54:31.858Z,3.15
2022-10-12T05:56:59.871Z,3.03
2022-10-12T05:59:29.185Z,3.30
2022-10-12T06:01:57.166Z,3.25
2022-10-12T06:04:25.258Z,2.90
2022-10-12T06:06:53.198Z,3.15
2022-10-12T06:09:21.217Z,3.38
2022-10-12T06:14:35.615Z,3.45
2022-10-12T06:17:03.505Z,2.78
2022-10-12T06:19:31.392Z,3.15
2022-10-12T06:21:59.334Z,3.25
2022-10-12T06:24:27.265Z,3.58
2022-10-12T06:26:55.167Z,4.00
2022-10-12T06:29:24.325Z,3.55
2022-10-12T06:31:54.261Z,4.05
2022-10-12T06:34:22.226Z,3.72
2022-10-12T06:36:50.262Z,4.30
2022-10-12T06:39:18.156Z,4.78
2022-10-12T06:41:46.657Z,4.97
2022-10-12T06:44:14.955Z,4.78
2022-10-12T06:46:42.820Z,6.50
2022-10-12T06:49:13.046Z,6.75
2022-10-12T06:51:41.106Z,7.85
2022-10-12T06:54:08.979Z,7.53
2022-10-12T06:56:38.307Z,6.68
2022-10-12T06:59:06.252Z,6.82
2022-10-12T07:01:34.162Z,5.90
2022-10-12T07:04:02.144Z,6.75
2022-10-12T07:06:31.745Z,6.22
2022-10-12T07:08:59.777Z,7.13
2022-10-12T07:11:27.752Z,6.78
2022-10-12T07:13:55.648Z,6.93
2022-10-12T07:16:24.081Z,6.30
2022-10-12T07:18:52.068Z,7.07
2022-10-12T07:21:20.065Z,7.80
2022-10-12T07:23:49.423Z,7.43
2022-10-12T07:26:17.404Z,8.43
2022-10-12T07:28:45.542Z,9.13
2022-10-12T07:31:13.673Z,8.98
2022-10-12T07:33:41.633Z,8.48
2022-10-12T07:36:15.693Z,8.75
2022-10-12T07:38:49.122Z,8.43
2022-10-12T07:41:17.158Z,8.80
2022-10-12T07:43:45.156Z,8.52
2022-10-12T07:46:13.436Z,8.63
2022-10-12T07:48:47.258Z,8.05
2022-10-12T07:51:17.182Z,9.35
2022-10-12T07:53:45.162Z,10.15
2022-10-12T07:56:16.115Z,10.00
2022-10-12T07:58:44.518Z,10.65
2022-10-12T08:01:12.725Z,11.63
2022-10-12T08:03:41.004Z,12.00
2022-10-12T08:06:13.476Z,12.55
2022-10-12T08:08:41.750Z,12.13
2022-10-12T08:11:10.705Z,12.35
2022-10-12T08:13:40.678Z,12.07
2022-10-12T08:16:12.079Z,12.27
2022-10-12T08:18:40.084Z,13.48
2022-10-12T08:21:09.472Z,13.45
2022-10-12T08:23:37.983Z,16.17
2022-10-12T08:26:06.733Z,17.48
2022-10-12T08:28:35.297Z,16.88
2022-10-12T08:31:09.246Z,19.17
2022-10-12T08:33:37.230Z,17.38
2022-10-12T08:36:06.608Z,15.73
2022-10-12T08:38:35.252Z,12.85
2022-10-12T08:41:13.506Z,12.73
2022-10-12T08:43:57.685Z,13.30
2022-10-12T08:46:28.418Z,11.48
2022-10-12T08:49:01.774Z,11.00
2022-10-12T08:51:32.466Z,11.70
2022-10-12T08:54:06.572Z,10.95
2022-10-12T08:59:13.455Z,8.80
2022-10-12T09:01:58.266Z,10.80
2022-10-12T09:04:45.812Z,10.52
2022-10-12T09:07:17.276Z,9.57
2022-10-12T09:09:55.890Z,10.15
2022-10-12T09:12:39.111Z,10.50
2022-10-12T09:15:14.535Z,10.55
2022-10-12T09:17:48.510Z,9.30
2022-10-12T09:20:21.478Z,9.35
2022-10-12T09:22:51.801Z,10.77
2022-10-12T09:25:27.054Z,9.35
2022-10-12T09:27:58.354Z,9.10
2022-10-12T09:30:26.416Z,8.63
2022-10-12T09:33:14.054Z,8.20
2022-10-12T09:35:47.191Z,9.80
2022-10-12T09:38:15.693Z,9.30
2022-10-12T09:40:44.048Z,9.30
2022-10-12T09:43:13.027Z,9.55
2022-10-12T09:45:41.480Z,9.07
2022-10-12T09:48:16.594Z,8.63
2022-10-12T09:50:49.010Z,8.13
2022-10-12T09:53:27.281Z,8.50
2022-10-12T09:55:59.453Z,8.75
2022-10-12T09:58:29.083Z,8.05
2022-10-12T10:01:19.520Z,6.70
2022-10-12T10:03:52.018Z,6.80
2022-10-12T10:06:26.578Z,6.50
2022-10-12T10:08:56.631Z,7.45
2022-10-12T10:11:31.009Z,6.70
2022-10-12T10:14:00.824Z,6.65
2022-10-12T10:16:31.193Z,5.47
2022-10-12T10:19:03.033Z,6.57
2022-10-12T10:21:34.680Z,5.25
2022-10-12T10:24:04.033Z,4.78
2022-10-12T10:26:52.365Z,4.97
2022-10-12T10:29:32.139Z,4.78
2022-10-12T10:32:24.096Z,4.38
2022-10-12T10:35:05.823Z,4.97
2022-10-12T10:37:34.894Z,5.18
2022-10-12T10:40:04.160Z,5.28
2022-10-12T10:42:34.913Z,4.93
2022-10-12T10:45:05.253Z,5.30
2022-10-12T10:47:34.718Z,5.95
2022-10-12T10:50:07.346Z,4.88
2022-10-12T10:52:37.336Z,4.80
2022-10-12T10:55:18.617Z,5.55
2022-10-12T10:57:51.066Z,5.30
2022-10-12T11:00:39.771Z,5.15
2022-10-12T11:03:14.319Z,5.07
2022-10-12T11:05:47.937Z,5.30
2022-10-12T11:08:21.537Z,5.65
2022-10-12T11:10:54.487Z,6.45
2022-10-12T11:13:26.534Z,5.38
2022-10-12T11:15:59.546Z,5.97
2022-10-12T11:18:35.611Z,5.68
2022-10-12T11:21:09.655Z,6.07
2022-10-12T11:23:45.083Z,6.82
2022-10-12T11:26:23.702Z,6.15
2022-10-12T11:28:53.908Z,6.25
2022-10-12T11:31:25.850Z,5.28
2022-10-12T11:33:56.060Z,12.10
2022-10-12T11:36:29.663Z,8.05
2022-10-12T11:39:06.890Z,6.68
2022-10-12T11:42:03.061Z,5.00
2022-10-12T11:44:40.963Z,4.97
2022-10-12T11:47:17.106Z,5.60
2022-10-12T11:49:52.668Z,5.80
2022-10-12T11:52:27.806Z,5.53
2022-10-12T11:55:01.857Z,5.45
2022-10-12T11:57:35.047Z,4.85
2022-10-12T12:00:06.585Z,5.57
2022-10-12T12:02:42.114Z,5.03
2022-10-12T12:05:16.526Z,4.93
2022-10-12T12:07:51.279Z,5.68
2022-10-12T12:10:52.883Z,5.03
2022-10-12T12:13:26.765Z,4.95
2022-10-12T12:16:33.914Z,4.75
2022-10-12T12:19:34.505Z,5.35
2022-10-12T12:22:14.442Z,6.03
2022-10-12T12:24:56.839Z,5.05
2022-10-12T12:27:31.672Z,5.43
2022-10-12T12:30:01.634Z,3.92
2022-10-12T12:32:49.397Z,5.30
2022-10-12T12:35:27.808Z,5.28
2022-10-12T12:38:05.714Z,7.38
2022-10-12T12:40:36.199Z,6.70
2022-10-12T12:43:53.723Z,8.68
2022-10-12T12:46:22.023Z,6.00
2022-10-12T12:49:04.473Z,7.47
2022-10-12T12:51:43.361Z,6.15
2022-10-12T12:54:18.917Z,7.40
2022-10-12T12:57:28.455Z,7.35
2022-10-12T13:00:23.411Z,6.70
2022-10-12T13:03:20.788Z,7.35
2022-10-12T13:06:19.328Z,7.93
2022-10-12T13:09:06.818Z,8.27
2022-10-12T13:12:10.490Z,8.77
2022-10-12T13:14:52.561Z,8.80
2022-10-12T13:17:38.211Z,8.68
2022-10-12T13:20:18.305Z,8.90
2022-10-12T13:22:47.850Z,9.73
2022-10-12T13:25:29.167Z,10.13
2022-10-12T13:27:59.700Z,9.70
2022-10-12T13:30:35.665Z,10.13
2022-10-12T13:33:12.283Z,9.60
2022-10-12T13:35:43.888Z,11.57
2022-10-12T13:38:22.559Z,11.63
2022-10-12T13:40:55.682Z,11.82
2022-10-12T13:43:37.538Z,12.25
2022-10-12T13:46:06.497Z,12.27
2022-10-12T13:48:58.281Z,12.80
2022-10-12T13:51:27.810Z,11.88
2022-10-12T13:53:56.634Z,12.45
2022-10-12T13:56:26.241Z,12.55
2022-10-12T13:58:59.610Z,12.45
2022-10-12T14:01:28.531Z,13.03
2022-10-12T14:04:04.588Z,12.77
2022-10-12T14:06:34.661Z,13.65
2022-10-12T14:09:09.932Z,13.30
2022-10-12T14:11:39.044Z,13.55
2022-10-12T14:14:14.014Z,14.57
2022-10-12T14:16:41.881Z,13.75
2022-10-12T14:19:21.482Z,15.63
2022-10-12T14:21:50.217Z,21.00
2022-10-12T14:24:20.183Z,14.63
2022-10-12T14:26:55.443Z,15.48
2022-10-12T14:29:33.043Z,13.13
2022-10-12T14:32:03.116Z,22.40
2022-10-12T14:34:36.367Z,13.82
2022-10-12T14:37:06.204Z,11.23
2022-10-12T14:39:34.957Z,10.52
2022-10-12T14:42:05.006Z,8.40
2022-10-12T14:44:44.285Z,10.18
2022-10-12T14:47:19.241Z,8.27
2022-10-12T14:49:48.423Z,9.00
2022-10-12T14:52:20.897Z,8.45
2022-10-12T14:54:52.251Z,7.85
2022-10-12T14:57:21.610Z,8.10
2022-10-12T14:59:51.548Z,8.18
2022-10-12T15:02:21.784Z,8.77
2022-10-12T15:04:50.475Z,8.43
2022-10-12T15:07:21.577Z,7.53
2022-10-12T15:09:49.891Z,8.30
2022-10-12T15:12:20.200Z,7.65
2022-10-12T15:14:50.369Z,8.07
2022-10-12T15:17:20.433Z,8.18
2022-10-12T15:19:50.467Z,8.15
2022-10-12T15:22:20.966Z,8.02
2022-10-12T15:24:49.713Z,7.72
2022-10-12T15:27:17.849Z,7.68
2022-10-12T15:29:48.149Z,7.53
2022-10-12T15:32:18.941Z,7.05
2022-10-12T15:34:47.048Z,6.78
2022-10-12T15:37:15.330Z,7.07
2022-10-12T15:39:44.110Z,6.03
2022-10-12T15:42:12.985Z,8.18
2022-10-12T15:44:42.148Z,7.97
2022-10-12T15:47:11.750Z,6.75
2022-10-12T15:49:41.289Z,6.40
2022-10-12T15:52:12.011Z,6.70
2022-10-12T15:54:40.041Z,6.55
2022-10-12T15:57:08.383Z,5.82
2022-10-12T15:59:36.391Z,5.97
2022-10-12T16:02:04.497Z,5.95
2022-10-12T16:04:32.384Z,6.03
2022-10-12T16:07:02.157Z,5.63
2022-10-12T16:09:30.259Z,5.78
2022-10-12T16:11:58.332Z,5.28
2022-10-12T16:14:26.980Z,5.30
2022-10-12T16:16:55.779Z,5.90
2022-10-12T16:19:23.894Z,5.60
2022-10-12T16:21:51.945Z,5.13
2022-10-12T16:24:21.322Z,6.15
2022-10-12T16:26:49.970Z,4.95
2022-10-12T16:29:17.949Z,5.40
2022-10-12T16:31:45.978Z,4.85
2022-10-12T16:34:14.218Z,5.88
2022-10-12T16:36:42.433Z,6.00
2022-10-12T16:39:10.342Z,5.75
2022-10-12T16:41:39.783Z,5.85
2022-10-12T16:44:08.011Z,6.10
2022-10-12T16:46:36.961Z,5.50
2022-10-12T16:49:05.260Z,6.25
2022-10-12T16:51:33.313Z,5.55
2022-10-12T16:54:01.440Z,6.35
2022-10-12T16:56:29.357Z,10.57
2022-10-12T16:59:00.033Z,8.55
2022-10-12T17:01:28.372Z,8.48
2022-10-12T17:03:56.484Z,7.55
2022-10-12T17:06:24.531Z,8.35
2022-10-12T17:08:52.391Z,7.35
2022-10-12T17:11:21.291Z,7.72
2022-10-12T17:13:49.574Z,7.00
2022-10-12T17:16:36.812Z,6.43
2022-10-12T17:19:05.001Z,6.78
2022-10-12T17:21:33.011Z,6.05
2022-10-12T17:24:01.792Z,8.43
2022-10-12T17:26:29.986Z,10.20
2022-10-12T17:28:57.984Z,8.70
2022-10-12T17:31:27.351Z,7.80
2022-10-12T17:33:55.312Z,7.07
2022-10-12T17:36:27.860Z,7.10
2022-10-12T17:38:57.609Z,8.48
2022-10-12T17:41:26.065Z,9.80
2022-10-12T17:43:54.027Z,9.45
2022-10-12T17:46:22.818Z,9.38
2022-10-12T17:48:52.264Z,8.93
2022-10-12T17:51:20.337Z,8.93
2022-10-12T17:53:48.431Z,13.30
2022-10-12T17:56:16.854Z,11.95
2022-10-12T17:58:45.278Z,11.32
2022-10-12T18:01:15.530Z,11.25
2022-10-12T18:03:46.459Z,10.63
2022-10-12T18:06:18.697Z,10.38
2022-10-12T18:08:46.900Z,10.80
2022-10-12T18:11:15.364Z,13.60
2022-10-12T18:13:46.662Z,15.70
2022-10-12T18:16:17.164Z,14.18
2022-10-12T18:18:45.329Z,12.93
2022-10-12T18:21:16.174Z,12.07
2022-10-12T18:23:44.330Z,12.90
2022-10-12T18:26:13.895Z,12.90
2022-10-12T18:28:42.363Z,11.98
2022-10-12T18:31:16.102Z,11.63
2022-10-12T18:33:44.036Z,11.32
2022-10-12T18:36:13.161Z,12.05
2022-10-12T18:38:42.587Z,11.88
2022-10-12T18:41:12.151Z,11.63
2022-10-12T18:43:40.654Z,10.98
2022-10-12T18:46:08.721Z,10.90
2022-10-12T18:48:36.761Z,11.15
2022-10-12T18:51:06.815Z,12.00
2022-10-12T18:53:35.083Z,12.27
2022-10-12T18:56:05.743Z,11.85
2022-10-12T18:58:34.105Z,12.55
2022-10-12T19:01:02.036Z,12.13
2022-10-12T19:03:30.014Z,12.27
2022-10-12T19:06:05.218Z,11.85
2022-10-12T19:08:33.246Z,11.85
2022-10-12T19:11:01.091Z,11.00
2022-10-12T19:13:30.554Z,12.63
2022-10-12T19:15:58.711Z,13.35
2022-10-12T19:18:26.676Z,12.65
2022-10-12T19:20:54.517Z,12.95
2022-10-12T19:23:22.389Z,11.63
2022-10-12T19:25:50.364Z,12.38
2022-10-12T19:28:18.318Z,13.88
2022-10-12T19:30:47.626Z,12.18
2022-10-12T19:33:15.500Z,13.05
2022-10-12T19:35:43.374Z,13.02
2022-10-12T19:38:11.278Z,12.82
2022-10-12T19:40:39.156Z,13.65
2022-10-12T19:43:07.807Z,12.18
2022-10-12T19:45:40.294Z,14.80
2022-10-12T19:48:10.428Z,18.77
2022-10-12T19:50:38.396Z,29.30
2022-10-12T19:53:06.753Z,28.60
2022-10-12T19:55:35.050Z,30.95
2022-10-12T19:58:03.007Z,22.90
2022-10-12T20:00:33.217Z,19.67
2022-10-12T20:03:01.354Z,12.15
2022-10-12T20:05:30.584Z,11.90
2022-10-12T20:07:58.625Z,12.20
2022-10-12T20:10:26.496Z,11.82
2022-10-12T20:12:54.359Z,10.90
2022-10-12T20:15:22.273Z,10.40
2022-10-12T20:17:50.129Z,9.82
2022-10-12T20:20:18.353Z,9.93
2022-10-12T20:22:47.824Z,9.45
2022-10-12T20:25:17.165Z,9.70
2022-10-12T20:27:45.018Z,8.85
2022-10-12T20:30:13.570Z,9.07
2022-10-12T20:32:41.538Z,10.07
2022-10-12T20:35:09.902Z,9.90
2022-10-12T20:37:39.370Z,9.82
2022-10-12T20:40:09.912Z,10.00
2022-10-12T20:42:37.841Z,9.60
2022-10-12T20:45:06.637Z,10.05
2022-10-12T20:47:34.616Z,10.38
2022-10-12T20:50:02.773Z,10.43
2022-10-12T20:52:30.618Z,9.18
2022-10-12T20:54:58.497Z,9.45
2022-10-12T20:57:28.051Z,10.00
2022-10-12T20:59:55.993Z,9.52
2022-10-12T21:02:23.923Z,9.05
2022-10-12T21:04:51.803Z,10.25
2022-10-12T21:07:20.524Z,9.48
2022-10-12T21:09:48.368Z,9.60
2022-10-12T21:12:16.778Z,9.85
2022-10-12T21:14:46.350Z,9.68
2022-10-12T21:17:14.245Z,9.50
2022-10-12T21:19:42.181Z,10.07
2022-10-12T21:22:10.371Z,10.38
2022-10-12T21:24:38.247Z,10.35
2022-10-12T21:27:06.133Z,10.02
2022-10-12T21:29:34.065Z,10.82
2022-10-12T21:32:03.399Z,11.07
2022-10-12T21:34:31.279Z,10.02
2022-10-12T21:36:59.223Z,9.73
2022-10-12T21:39:27.170Z,9.85
2022-10-12T21:41:55.049Z,9.73
2022-10-12T21:44:22.904Z,9.88
2022-10-12T21:46:50.831Z,9.88
2022-10-12T21:49:20.050Z,9.85
2022-10-12T21:51:48.003Z,8.95
2022-10-12T21:54:15.891Z,9.77
2022-10-12T21:56:43.831Z,9.93
2022-10-12T21:59:11.872Z,10.63
2022-10-12T22:01:41.660Z,10.65
2022-10-12T22:04:13.583Z,9.77
2022-10-12T22:06:43.478Z,9.90
2022-10-12T22:09:16.303Z,10.13
2022-10-12T22:11:44.378Z,9.55
2022-10-12T22:14:14.915Z,9.70
2022-10-12T22:16:44.159Z,11.30
2022-10-12T22:19:15.387Z,10.43
2022-10-12T22:21:44.645Z,9.82
2022-10-12T22:24:12.645Z,9.70
2022-10-12T22:26:40.749Z,10.70
2022-10-12T22:29:10.382Z,10.55
2022-10-12T22:31:40.463Z,11.13
2022-10-12T22:34:09.032Z,10.13
2022-10-12T22:36:36.966Z,9.60
2022-10-12T22:39:06.398Z,9.63
2022-10-12T22:41:34.281Z,9.85
2022-10-12T22:44:02.222Z,9.98
2022-10-12T22:46:30.163Z,9.73
2022-10-12T22:48:58.054Z,9.63
2022-10-12T22:51:31.611Z,9.35
2022-10-12T22:54:00.067Z,9.65
2022-10-12T22:56:29.796Z,9.38
2022-10-12T22:58:58.931Z,10.20
2022-10-12T23:01:27.999Z,9.88
2022-10-12T23:03:56.901Z,9.93
2022-10-12T23:06:25.731Z,9.77
2022-10-12T23:08:53.939Z,8.85
2022-10-12T23:11:24.684Z,8.73
2022-10-12T23:13:54.021Z,9.65
2022-10-12T23:16:24.182Z,9.52
2022-10-12T23:18:58.995Z,9.98
2022-10-12T23:21:28.374Z,9.18
2022-10-12T23:23:56.553Z,9.80
2022-10-12T23:26:26.251Z,9.52
2022-10-12T23:28:55.804Z,9.45
2022-10-12T23:31:26.481Z,9.63
2022-10-12T23:33:56.520Z,9.73
2022-10-12T23:36:24.446Z,9.27
2022-10-12T23:38:53.099Z,9.55
2022-10-12T23:41:21.311Z,9.77
2022-10-12T23:43:49.244Z,9.38
2022-10-12T23:46:18.657Z,9.65
2022-10-12T23:48:46.525Z,8.55
2022-10-12T23:51:14.408Z,9.63
2022-10-12T23:53:43.067Z,8.57
2022-10-12T23:56:11.258Z,9.95
2022-10-12T23:58:40.619Z,9.13
